createdAt,value
2019-04-01T00:01:17.398Z,11.73
2019-04-01T00:03:46.565Z,10.77
2019-04-01T00:06:15.883Z,11.63
2019-04-01T00:08:45.206Z,13.17
2019-04-01T00:11:14.811Z,12.80
2019-04-01T00:13:43.805Z,14.20
2019-04-01T00:16:12.733Z,16.67
2019-04-01T00:18:41.646Z,18.27
2019-04-01T00:21:10.748Z,17.90
2019-04-01T00:23:39.873Z,17.87
2019-04-01T00:26:08.834Z,18.03
2019-04-01T00:28:37.964Z,19.30
2019-04-01T00:31:06.824Z,19.17
2019-04-01T00:33:35.680Z,21.10
2019-04-01T00:36:04.690Z,22.27
2019-04-01T00:38:33.624Z,21.77
2019-04-01T00:41:02.548Z,20.67
2019-04-01T00:43:52.715Z,22.97
2019-04-01T00:46:21.960Z,24.47
2019-04-01T00:48:50.913Z,26.27
2019-04-01T00:51:20.102Z,24.57
2019-04-01T00:53:48.959Z,25.03
2019-04-01T00:56:18.100Z,26.27
2019-04-01T00:58:46.942Z,24.23
2019-04-01T01:01:16.282Z,27.43
2019-04-01T01:03:45.142Z,24.13
2019-04-01T01:06:14.372Z,24.73
2019-04-01T01:08:43.469Z,23.70
2019-04-01T01:11:12.307Z,25.33
2019-04-01T01:13:41.229Z,27.70
2019-04-01T01:16:10.450Z,27.07
2019-04-01T01:18:39.667Z,28.00
2019-04-01T01:21:08.570Z,27.93
2019-04-01T01:23:37.742Z,28.10
2019-04-01T01:26:06.645Z,29.60
2019-04-01T01:28:35.489Z,27.70
2019-04-01T01:31:04.394Z,29.03
2019-04-01T01:33:33.313Z,27.80
2019-04-01T01:36:02.154Z,28.43
2019-04-01T01:38:31.061Z,28.37
2019-04-01T01:41:00.278Z,30.00
2019-04-01T01:43:29.281Z,28.43
2019-04-01T01:45:58.121Z,27.73
2019-04-01T01:48:27.473Z,28.27
2019-04-01T01:50:56.974Z,29.20
2019-04-01T01:53:25.892Z,28.20
2019-04-01T01:55:55.060Z,27.83
2019-04-01T01:58:24.257Z,28.23
2019-04-01T02:00:55.094Z,29.80
2019-04-01T02:03:23.969Z,27.67
2019-04-01T02:05:53.182Z,26.30
2019-04-01T02:08:22.110Z,29.13
2019-04-01T02:10:50.944Z,27.13
2019-04-01T02:13:20.273Z,28.70
2019-04-01T02:15:49.671Z,29.10
2019-04-01T02:18:18.594Z,24.93
2019-04-01T02:20:47.430Z,26.17
2019-04-01T02:23:16.353Z,27.07
2019-04-01T02:25:45.539Z,26.77
2019-04-01T02:28:14.941Z,26.70
2019-04-01T02:30:43.882Z,27.30
2019-04-01T02:33:13.071Z,25.80
2019-04-01T02:35:41.911Z,27.77
2019-04-01T02:38:10.763Z,29.37
2019-04-01T02:40:39.614Z,27.80
2019-04-01T02:43:08.527Z,28.30
2019-04-01T02:45:37.465Z,26.50
2019-04-01T02:48:06.786Z,29.17
2019-04-01T02:50:36.045Z,25.67
2019-04-01T02:53:05.035Z,27.20
2019-04-01T02:55:34.389Z,28.03
2019-04-01T02:58:03.690Z,25.93
2019-04-01T03:00:32.987Z,27.40
2019-04-01T03:03:01.934Z,28.50
2019-04-01T03:05:30.788Z,25.13
2019-04-01T03:07:59.707Z,29.60
2019-04-01T03:10:28.900Z,29.73
2019-04-01T03:12:57.740Z,29.40
2019-04-01T03:15:26.842Z,28.23
2019-04-01T03:17:56.339Z,28.67
2019-04-01T03:20:25.199Z,29.20
2019-04-01T03:22:54.343Z,28.37
2019-04-01T03:25:23.358Z,28.03
2019-04-01T03:27:53.039Z,29.97
2019-04-01T03:30:21.963Z,28.27
2019-04-01T03:32:50.881Z,28.80
2019-04-01T03:35:19.790Z,28.90
2019-04-01T03:37:48.622Z,30.23
2019-04-01T03:40:17.627Z,27.63
2019-04-01T03:42:46.901Z,27.90
2019-04-01T03:45:15.975Z,26.60
2019-04-01T03:47:44.815Z,26.97
2019-04-01T03:50:13.810Z,27.57
2019-04-01T03:52:43.074Z,26.77
2019-04-01T03:55:12.185Z,29.20
2019-04-01T03:57:41.153Z,28.13
2019-04-01T04:00:10.515Z,26.20
2019-04-01T04:02:39.369Z,28.03
2019-04-01T04:05:08.391Z,27.77
2019-04-01T04:07:37.365Z,28.97
2019-04-01T04:10:06.612Z,30.07
2019-04-01T04:12:35.462Z,26.70
2019-04-01T04:15:04.649Z,26.80
2019-04-01T04:17:33.830Z,26.57
2019-04-01T04:20:02.822Z,27.63
2019-04-01T04:22:31.682Z,26.87
2019-04-01T04:25:00.683Z,28.10
2019-04-01T04:27:29.678Z,28.43
2019-04-01T04:29:58.523Z,29.67
2019-04-01T04:32:27.385Z,27.87
2019-04-01T04:34:57.381Z,27.07
2019-04-01T04:37:26.804Z,27.30
2019-04-01T04:39:55.798Z,25.77
2019-04-01T04:42:24.779Z,29.43
2019-04-01T04:44:53.926Z,26.20
2019-04-01T04:47:23.738Z,28.77
2019-04-01T04:49:53.410Z,25.60
2019-04-01T04:52:22.267Z,26.47
2019-04-01T04:54:51.119Z,28.40
2019-04-01T04:57:20.607Z,27.77
2019-04-01T04:59:49.622Z,26.40
2019-04-01T05:02:18.570Z,26.20
2019-04-01T05:04:47.789Z,26.63
2019-04-01T05:07:16.668Z,26.70
2019-04-01T05:09:45.626Z,26.47
2019-04-01T05:12:14.971Z,27.50
2019-04-01T05:14:43.839Z,27.80
2019-04-01T05:17:13.059Z,27.03
2019-04-01T05:19:42.055Z,26.60
2019-04-01T05:22:12.010Z,29.27
2019-04-01T05:24:41.487Z,28.83
2019-04-01T05:27:11.372Z,26.13
2019-04-01T05:29:42.216Z,30.40
2019-04-01T05:32:13.816Z,28.00
2019-04-01T05:34:45.277Z,26.50
2019-04-01T05:37:14.633Z,27.47
2019-04-01T05:39:43.927Z,27.90
2019-04-01T05:42:13.133Z,28.37
2019-04-01T05:44:42.633Z,28.87
2019-04-01T05:47:11.994Z,29.20
2019-04-01T05:49:40.947Z,29.10
2019-04-01T05:52:10.233Z,29.03
2019-04-01T05:54:39.934Z,29.57
2019-04-01T05:57:09.206Z,30.57
2019-04-01T05:59:38.538Z,31.73
2019-04-01T06:02:07.651Z,32.17
2019-04-01T06:04:36.946Z,32.83
2019-04-01T06:07:05.951Z,32.97
2019-04-01T06:09:35.244Z,33.37
2019-04-01T06:12:04.640Z,33.60
2019-04-01T06:14:34.052Z,34.03
2019-04-01T06:17:03.359Z,34.13
2019-04-01T06:19:32.418Z,32.47
2019-04-01T06:22:01.558Z,34.53
2019-04-01T06:24:31.342Z,31.60
2019-04-01T06:27:00.414Z,33.90
2019-04-01T06:29:29.915Z,34.80
2019-04-01T06:31:59.297Z,34.53
2019-04-01T06:34:28.234Z,33.80
2019-04-01T06:36:57.216Z,33.63
2019-04-01T06:39:26.181Z,33.20
2019-04-01T06:41:55.171Z,32.77
2019-04-01T06:44:24.420Z,35.07
2019-04-01T06:46:53.345Z,35.10
2019-04-01T06:49:23.631Z,34.37
2019-04-01T06:51:52.562Z,34.77
2019-04-01T06:54:21.670Z,33.47
2019-04-01T06:56:50.589Z,32.50
2019-04-01T06:59:19.815Z,33.53
2019-04-01T07:01:49.013Z,35.43
2019-04-01T07:04:18.042Z,33.57
2019-04-01T07:06:47.612Z,33.07
2019-04-01T07:09:16.546Z,33.37
2019-04-01T07:11:45.636Z,34.30
2019-04-01T07:14:15.225Z,33.70
2019-04-01T07:16:44.218Z,33.17
2019-04-01T07:19:13.210Z,34.37
2019-04-01T07:21:43.003Z,32.17
2019-04-01T07:24:12.217Z,31.97
2019-04-01T07:26:41.153Z,31.90
2019-04-01T07:29:10.266Z,33.87
2019-04-01T07:31:40.223Z,35.60
2019-04-01T07:34:09.297Z,32.53
2019-04-01T07:36:38.924Z,33.63
2019-04-01T07:39:07.861Z,33.27
2019-04-01T07:41:37.107Z,33.93
2019-04-01T07:44:06.122Z,34.30
2019-04-01T07:46:35.110Z,34.33
2019-04-01T07:49:04.229Z,31.23
2019-04-01T07:51:33.586Z,34.70
2019-04-01T07:54:02.589Z,33.70
2019-04-01T07:56:31.518Z,31.50
2019-04-01T07:59:00.486Z,32.87
2019-04-01T08:01:29.665Z,33.73
2019-04-01T08:03:58.971Z,32.77
2019-04-01T08:06:28.266Z,34.27
2019-04-01T08:08:57.679Z,33.50
2019-04-01T08:11:26.866Z,33.27
2019-04-01T08:13:56.063Z,33.37
2019-04-01T08:16:25.371Z,33.97
2019-04-01T08:18:54.381Z,31.30
2019-04-01T08:21:23.377Z,34.07
2019-04-01T08:23:52.701Z,35.47
2019-04-01T08:26:21.771Z,33.27
2019-04-01T08:28:51.051Z,33.93
2019-04-01T08:31:20.352Z,32.73
2019-04-01T08:33:50.376Z,34.50
2019-04-01T08:36:20.086Z,33.57
2019-04-01T08:38:49.048Z,33.40
2019-04-01T08:41:18.062Z,33.77
2019-04-01T08:43:47.001Z,35.93
2019-04-01T08:46:16.398Z,31.90
2019-04-01T08:48:45.661Z,34.77
2019-04-01T08:51:15.158Z,33.47
2019-04-01T08:53:44.800Z,35.03
2019-04-01T08:56:13.794Z,33.20
2019-04-01T08:58:42.717Z,35.17
2019-04-01T09:01:11.963Z,35.20
2019-04-01T09:03:40.924Z,31.77
2019-04-01T09:06:10.533Z,34.40
2019-04-01T09:08:39.961Z,33.33
2019-04-01T09:11:09.868Z,36.07
2019-04-01T09:13:39.766Z,33.40
2019-04-01T09:16:08.781Z,35.00
2019-04-01T09:18:37.913Z,33.83
2019-04-01T09:21:07.186Z,33.07
2019-04-01T09:23:36.389Z,33.83
2019-04-01T09:26:05.398Z,35.73
2019-04-01T09:28:34.395Z,34.23
2019-04-01T09:31:03.674Z,33.97
2019-04-01T09:33:32.606Z,32.73
2019-04-01T09:36:01.461Z,34.30
2019-04-01T09:38:30.646Z,41.63
2019-04-01T09:40:59.677Z,33.77
2019-04-01T09:43:28.949Z,39.00
2019-04-01T09:45:57.802Z,35.33
2019-04-01T09:48:27.443Z,34.50
2019-04-01T09:50:56.745Z,34.63
2019-04-01T09:53:25.674Z,34.90
2019-04-01T09:55:54.945Z,34.80
2019-04-01T09:58:23.820Z,34.23
2019-04-01T10:00:53.356Z,34.40
2019-04-01T10:03:22.903Z,33.80
2019-04-01T10:05:51.920Z,32.70
2019-04-01T10:08:20.884Z,32.70
2019-04-01T10:10:49.829Z,33.00
2019-04-01T10:13:18.694Z,31.43
2019-04-01T10:15:47.621Z,34.23
2019-04-01T10:18:16.902Z,33.63
2019-04-01T10:20:45.914Z,34.53
2019-04-01T10:23:14.838Z,34.87
2019-04-01T10:25:43.858Z,33.67
2019-04-01T10:28:13.085Z,33.47
2019-04-01T10:30:42.164Z,33.10
2019-04-01T10:33:11.161Z,33.50
2019-04-01T10:35:40.098Z,36.43
2019-04-01T10:38:09.100Z,36.70
2019-04-01T10:40:38.098Z,33.30
2019-04-01T10:43:07.022Z,34.50
2019-04-01T10:45:36.049Z,36.90
2019-04-01T10:48:05.046Z,35.20
2019-04-01T10:50:34.167Z,33.43
2019-04-01T10:53:03.050Z,33.97
2019-04-01T10:55:32.183Z,34.73
2019-04-01T10:58:01.073Z,33.70
2019-04-01T11:00:30.109Z,34.33
2019-04-01T11:02:59.096Z,31.70
2019-04-01T11:05:28.119Z,32.87
2019-04-01T11:07:57.095Z,31.23
2019-04-01T11:10:26.141Z,33.83
2019-04-01T11:12:55.018Z,31.13
2019-04-01T11:15:24.366Z,34.10
2019-04-01T11:17:53.302Z,34.23
2019-04-01T11:20:22.797Z,32.87
2019-04-01T11:22:51.686Z,31.30
2019-04-01T11:25:20.954Z,31.70
2019-04-01T11:27:49.910Z,34.00
2019-04-01T11:30:19.250Z,30.73
2019-04-01T11:32:48.309Z,32.03
2019-04-01T11:35:17.364Z,31.93
2019-04-01T11:37:46.766Z,30.33
2019-04-01T11:40:15.957Z,31.03
2019-04-01T11:42:45.082Z,32.07
2019-04-01T11:45:14.884Z,32.10
2019-04-01T11:47:43.916Z,29.00
2019-04-01T11:50:13.302Z,30.80
2019-04-01T11:52:42.372Z,30.10
2019-04-01T11:55:11.707Z,30.10
2019-04-01T11:57:41.085Z,31.97
2019-04-01T12:00:15.216Z,29.80
2019-04-01T12:02:46.043Z,30.40
2019-04-01T12:05:15.602Z,30.93
2019-04-01T12:07:44.629Z,32.23
2019-04-01T12:10:13.697Z,31.80
2019-04-01T12:12:42.890Z,30.93
2019-04-01T12:15:12.744Z,31.63
2019-04-01T12:17:42.620Z,34.27
2019-04-01T12:20:11.752Z,30.60
2019-04-01T12:22:45.224Z,30.07
2019-04-01T12:25:12.156Z,31.13
2019-04-01T12:27:41.505Z,31.80
2019-04-01T12:30:10.967Z,31.47
2019-04-01T12:32:39.984Z,32.50
2019-04-01T12:35:09.014Z,30.43
2019-04-01T12:37:38.374Z,31.70
2019-04-01T12:40:07.754Z,29.60
2019-04-01T12:42:36.781Z,31.03
2019-04-01T12:45:10.399Z,30.83
2019-04-01T12:47:42.919Z,33.23
2019-04-01T12:50:10.817Z,28.90
2019-04-01T12:52:40.515Z,30.63
2019-04-01T12:55:09.822Z,31.10
2019-04-01T12:57:38.755Z,30.33
2019-04-01T13:00:09.877Z,29.23
2019-04-01T13:02:38.906Z,31.43
2019-04-01T13:05:08.207Z,30.03
2019-04-01T13:07:37.259Z,27.30
2019-04-01T13:10:06.523Z,28.50
2019-04-01T13:12:35.469Z,30.73
2019-04-01T13:15:05.371Z,28.63
2019-04-01T13:17:34.641Z,30.97
2019-04-01T13:20:03.943Z,28.93
2019-04-01T13:22:33.240Z,30.30
2019-04-01T13:25:05.441Z,27.27
2019-04-01T13:27:32.674Z,26.70
2019-04-01T13:30:01.550Z,27.17
2019-04-01T13:32:30.483Z,27.83
2019-04-01T13:34:59.415Z,26.87
2019-04-01T13:37:28.338Z,26.77
2019-04-01T13:39:57.282Z,26.47
2019-04-01T13:42:26.291Z,28.77
2019-04-01T13:44:55.391Z,26.40
2019-04-01T13:47:24.245Z,26.70
2019-04-01T13:49:53.204Z,25.97
2019-04-01T13:52:22.240Z,27.57
2019-04-01T13:54:51.299Z,27.00
2019-04-01T13:57:20.510Z,28.00
2019-04-01T13:59:51.662Z,27.57
2019-04-01T14:02:20.382Z,25.47
2019-04-01T14:04:49.314Z,26.93
2019-04-01T14:07:18.518Z,28.77
2019-04-01T14:09:48.190Z,27.30
2019-04-01T14:12:17.298Z,27.50
2019-04-01T14:14:46.611Z,28.40
2019-04-01T14:17:15.550Z,27.90
2019-04-01T14:19:44.456Z,26.27
2019-04-01T14:22:13.297Z,27.70
2019-04-01T14:24:42.703Z,25.90
2019-04-01T14:27:12.512Z,27.30
2019-04-01T14:29:41.801Z,26.80
2019-04-01T14:32:11.510Z,26.73
2019-04-01T14:34:40.708Z,27.57
2019-04-01T14:37:10.165Z,28.93
2019-04-01T14:39:39.616Z,28.30
2019-04-01T14:42:08.699Z,27.17
2019-04-01T14:44:37.821Z,27.20
2019-04-01T14:47:09.039Z,26.27
2019-04-01T14:49:37.497Z,26.50
2019-04-01T14:52:06.961Z,25.90
2019-04-01T14:54:36.256Z,24.83
2019-04-01T14:57:05.276Z,26.10
2019-04-01T14:59:34.165Z,25.87
2019-04-01T15:02:03.819Z,23.50
2019-04-01T15:04:33.138Z,27.57
2019-04-01T15:07:02.022Z,24.40
2019-04-01T15:09:31.254Z,24.30
2019-04-01T15:12:00.257Z,26.87
2019-04-01T15:14:29.188Z,28.10
2019-04-01T15:16:58.422Z,23.80
2019-04-01T15:19:27.476Z,25.17
2019-04-01T15:21:56.478Z,23.67
2019-04-01T15:24:25.802Z,23.90
2019-04-01T15:26:55.506Z,25.37
2019-04-01T15:29:24.366Z,26.30
2019-04-01T15:31:54.524Z,25.60
2019-04-01T15:34:23.731Z,25.20
2019-04-01T15:36:53.058Z,26.93
2019-04-01T15:39:22.330Z,22.63
2019-04-01T15:41:51.206Z,27.00
2019-04-01T15:44:20.419Z,23.53
2019-04-01T15:46:49.607Z,23.30
2019-04-01T15:49:19.113Z,24.50
2019-04-01T15:51:48.441Z,23.70
2019-04-01T15:54:17.315Z,23.90
2019-04-01T15:56:46.214Z,22.67
2019-04-01T15:59:15.598Z,24.77
2019-04-01T16:01:44.598Z,22.77
2019-04-01T16:04:16.324Z,24.00
2019-04-01T16:06:44.221Z,22.80
2019-04-01T16:09:13.523Z,21.40
2019-04-01T16:11:42.480Z,24.57
2019-04-01T16:14:11.617Z,21.47
2019-04-01T16:16:40.638Z,23.70
2019-04-01T16:19:09.554Z,20.90
2019-04-01T16:21:38.485Z,23.20
2019-04-01T16:24:10.876Z,23.63
2019-04-01T16:26:38.318Z,20.93
2019-04-01T16:29:07.522Z,21.47
2019-04-01T16:31:36.446Z,20.50
2019-04-01T16:34:05.448Z,20.47
2019-04-01T16:36:34.706Z,21.87
2019-04-01T16:39:06.631Z,22.10
2019-04-01T16:41:36.154Z,19.70
2019-04-01T16:44:05.578Z,19.10
2019-04-01T16:46:34.602Z,21.30
2019-04-01T16:49:03.874Z,20.53
2019-04-01T16:51:32.890Z,21.20
2019-04-01T16:54:02.195Z,19.53
2019-04-01T16:56:31.142Z,22.00
2019-04-01T16:59:00.267Z,20.83
2019-04-01T17:01:29.319Z,22.03
2019-04-01T17:03:58.271Z,20.33
2019-04-01T17:06:27.385Z,20.93
2019-04-01T17:08:56.249Z,20.87
2019-04-01T17:11:25.194Z,22.80
2019-04-01T17:13:55.524Z,19.87
2019-04-01T17:16:24.644Z,21.73
2019-04-01T17:18:53.566Z,18.20
2019-04-01T17:21:22.544Z,17.40
2019-04-01T17:23:51.551Z,18.70
2019-04-01T17:26:20.425Z,18.20
2019-04-01T17:28:49.433Z,20.10
2019-04-01T17:31:18.375Z,18.20
2019-04-01T17:33:47.756Z,18.97
2019-04-01T17:36:17.058Z,19.77
2019-04-01T17:38:48.146Z,19.00
2019-04-01T17:41:16.658Z,18.83
2019-04-01T17:43:45.693Z,18.27
2019-04-01T17:46:14.860Z,18.40
2019-04-01T17:48:43.798Z,19.93
2019-04-01T17:51:13.033Z,21.33
2019-04-01T17:53:41.959Z,23.53
2019-04-01T17:56:11.219Z,23.90
2019-04-01T17:58:40.085Z,23.17
2019-04-01T18:01:10.410Z,22.20
2019-04-01T18:03:39.807Z,24.27
2019-04-01T18:06:08.802Z,24.30
2019-04-01T18:08:37.907Z,23.10
2019-04-01T18:11:06.770Z,23.10
2019-04-01T18:13:36.098Z,23.33
2019-04-01T18:16:06.110Z,24.70
2019-04-01T18:18:34.978Z,23.37
2019-04-01T18:21:04.051Z,24.97
2019-04-01T18:23:33.809Z,25.27
2019-04-01T18:26:03.026Z,24.80
2019-04-01T18:28:31.970Z,23.00
2019-04-01T18:31:01.066Z,24.83
2019-04-01T18:33:30.764Z,23.37
2019-04-01T18:35:59.823Z,23.67
2019-04-01T18:38:29.097Z,24.40
2019-04-01T18:40:58.015Z,24.87
2019-04-01T18:43:28.062Z,23.47
2019-04-01T18:45:57.417Z,23.80
2019-04-01T18:48:26.370Z,22.53
2019-04-01T18:50:55.305Z,24.87
2019-04-01T18:53:24.737Z,23.10
2019-04-01T18:55:54.134Z,24.67
2019-04-01T18:58:24.310Z,23.03
2019-04-01T19:00:54.553Z,25.00
2019-04-01T19:03:24.143Z,24.13
2019-04-01T19:05:53.573Z,24.80
2019-04-01T19:08:22.641Z,26.57
2019-04-01T19:11:01.737Z,23.70
2019-04-01T19:13:22.194Z,23.50
2019-04-01T19:15:52.134Z,24.60
2019-04-01T19:18:22.420Z,23.57
2019-04-01T19:20:56.844Z,24.10
2019-04-01T19:23:22.664Z,23.80
2019-04-01T19:25:52.084Z,24.83
2019-04-01T19:28:21.169Z,25.90
2019-04-01T19:30:50.414Z,24.80
2019-04-01T19:33:19.321Z,23.23
2019-04-01T19:35:48.769Z,26.80
2019-04-01T19:38:21.126Z,25.80
2019-04-01T19:40:48.551Z,27.10
2019-04-01T19:43:17.500Z,25.33
2019-04-01T19:45:46.863Z,26.17
2019-04-01T19:48:15.846Z,25.90
2019-04-01T19:50:45.283Z,25.47
2019-04-01T19:53:14.316Z,23.27
2019-04-01T19:55:43.896Z,25.23
2019-04-01T19:58:13.082Z,23.20
2019-04-01T20:00:42.805Z,23.67
2019-04-01T20:03:12.194Z,23.93
2019-04-01T20:05:41.494Z,23.90
2019-04-01T20:08:13.904Z,24.63
2019-04-01T20:10:41.632Z,24.57
2019-04-01T20:13:10.758Z,25.80
2019-04-01T20:15:40.347Z,25.00
2019-04-01T20:18:10.450Z,26.40
2019-04-01T20:20:41.462Z,26.40
2019-04-01T20:23:10.073Z,25.87
2019-04-01T20:25:38.998Z,27.43
2019-04-01T20:28:08.274Z,25.00
2019-04-01T20:30:38.146Z,24.77
2019-04-01T20:33:17.642Z,25.80
2019-04-01T20:35:38.344Z,26.13
2019-04-01T20:38:07.618Z,24.33
2019-04-01T20:40:36.919Z,24.73
2019-04-01T20:43:05.962Z,25.90
2019-04-01T20:45:34.919Z,25.00
2019-04-01T20:48:04.503Z,25.97
2019-04-01T20:50:33.818Z,24.87
2019-04-01T20:53:02.775Z,26.90
2019-04-01T20:55:31.789Z,22.77
2019-04-01T20:58:00.663Z,23.57
2019-04-01T21:00:29.893Z,24.57
2019-04-01T21:02:59.190Z,24.20
2019-04-01T21:05:28.049Z,26.27
2019-04-01T21:07:57.174Z,24.63
2019-04-01T21:10:26.475Z,24.53
2019-04-01T21:12:55.393Z,24.00
2019-04-01T21:15:24.621Z,23.83
2019-04-01T21:17:53.492Z,23.20
2019-04-01T21:20:22.427Z,25.73
2019-04-01T21:22:51.669Z,24.47
2019-04-01T21:25:20.690Z,23.77
2019-04-01T21:27:49.614Z,24.10
2019-04-01T21:30:20.130Z,24.20
2019-04-01T21:32:49.529Z,26.07
2019-04-01T21:35:18.566Z,25.40
2019-04-01T21:37:47.758Z,25.33
2019-04-01T21:40:16.791Z,24.50
2019-04-01T21:42:45.730Z,23.07
2019-04-01T21:45:16.277Z,25.90
2019-04-01T21:47:45.611Z,23.00
2019-04-01T21:50:15.386Z,22.67
2019-04-01T21:52:44.641Z,22.70
2019-04-01T21:55:13.653Z,23.13
2019-04-01T21:57:42.514Z,23.67
2019-04-01T22:00:14.051Z,22.60
2019-04-01T22:02:44.061Z,22.77
2019-04-01T22:05:13.967Z,22.10
2019-04-01T22:07:42.910Z,21.53
2019-04-01T22:10:12.066Z,22.70
2019-04-01T22:12:40.938Z,22.03
2019-04-01T22:15:09.990Z,22.47
2019-04-01T22:17:38.829Z,22.20
2019-04-01T22:20:07.995Z,26.83
2019-04-01T22:22:37.344Z,23.13
2019-04-01T22:25:06.622Z,24.00
2019-04-01T22:27:35.932Z,23.67
2019-04-01T22:30:06.601Z,22.67
2019-04-01T22:32:35.773Z,23.90
2019-04-01T22:35:05.409Z,23.17
2019-04-01T22:37:34.470Z,23.30
2019-04-01T22:40:03.551Z,23.73
2019-04-01T22:42:32.701Z,22.27
2019-04-01T22:45:01.685Z,23.93
2019-04-01T22:47:30.558Z,21.60
2019-04-01T22:49:59.755Z,22.00
2019-04-01T22:52:28.670Z,22.60
2019-04-01T22:54:58.270Z,21.00
2019-04-01T22:57:28.063Z,21.53
2019-04-01T22:59:56.926Z,22.20
2019-04-01T23:02:26.130Z,21.50
2019-04-01T23:04:55.334Z,22.67
2019-04-01T23:07:24.336Z,22.43
2019-04-01T23:09:53.177Z,23.20
2019-04-01T23:12:22.771Z,22.27
2019-04-01T23:14:51.886Z,21.47
2019-04-01T23:17:20.822Z,23.00
2019-04-01T23:19:49.774Z,22.57
2019-04-01T23:22:18.899Z,22.70
2019-04-01T23:24:47.834Z,22.73
2019-04-01T23:27:17.094Z,20.67
2019-04-01T23:29:45.947Z,22.83
2019-04-01T23:32:16.275Z,23.43
2019-04-01T23:34:46.017Z,22.13
2019-04-01T23:37:15.113Z,23.50
2019-04-01T23:39:44.070Z,22.70
2019-04-01T23:42:13.203Z,22.07
2019-04-01T23:44:42.054Z,23.47
2019-04-01T23:47:10.911Z,22.20
2019-04-01T23:49:40.439Z,21.80
2019-04-01T23:52:09.701Z,22.00
2019-04-01T23:54:38.694Z,23.90
2019-04-01T23:57:07.553Z,22.90
2019-04-01T23:59:36.466Z,23.50
